createdAt,value
2023-04-16T00:01:36.021Z,100719.45
2023-04-16T00:04:05.101Z,100714.11
2023-04-16T00:06:33.943Z,100719.55
2023-04-16T00:09:03.121Z,100725.31
2023-04-16T00:11:31.814Z,100726.27
2023-04-16T00:14:00.589Z,100725.66
2023-04-16T00:16:29.279Z,100729.80
2023-04-16T00:18:58.009Z,100728.30
2023-04-16T00:21:26.705Z,100731.21
2023-04-16T00:23:55.420Z,100731.98
2023-04-16T00:26:24.147Z,100731.96
2023-04-16T00:28:52.858Z,100733.29
2023-04-16T00:31:32.821Z,100730.35
2023-04-16T00:34:01.443Z,100736.08
2023-04-16T00:36:30.137Z,100739.48
2023-04-16T00:38:58.792Z,100735.09
2023-04-16T00:41:27.814Z,100737.73
2023-04-16T00:43:56.423Z,100742.33
2023-04-16T00:46:26.162Z,100741.59
2023-04-16T00:48:56.360Z,100745.05
2023-04-16T00:51:25.067Z,100747.20
2023-04-16T00:53:53.906Z,100751.55
2023-04-16T00:56:24.126Z,100754.35
2023-04-16T00:58:54.951Z,100758.55
2023-04-16T01:01:23.686Z,100758.52
2023-04-16T01:03:52.705Z,100753.58
2023-04-16T01:06:21.736Z,100752.80
2023-04-16T01:08:50.407Z,100753.98
2023-04-16T01:11:19.098Z,100757.55
2023-04-16T01:13:47.880Z,100755.67
2023-04-16T01:16:16.604Z,100754.64
2023-04-16T01:18:45.471Z,100757.52
2023-04-16T01:21:14.134Z,100758.17
2023-04-16T01:23:42.793Z,100757.10
2023-04-16T01:26:11.459Z,100762.35
2023-04-16T01:28:40.560Z,100758.88
2023-04-16T01:31:09.422Z,100762.47
2023-04-16T01:33:38.104Z,100759.33
2023-04-16T01:36:07.068Z,100758.79
2023-04-16T01:38:35.731Z,100757.00
2023-04-16T01:41:04.397Z,100758.66
2023-04-16T01:43:33.118Z,100759.31
2023-04-16T01:46:27.041Z,100760.06
2023-04-16T01:48:56.513Z,100756.27
2023-04-16T01:51:25.263Z,100754.65
2023-04-16T01:53:54.495Z,100757.62
2023-04-16T01:56:23.114Z,100757.80
2023-04-16T01:58:52.690Z,100755.52
2023-04-16T02:01:21.940Z,100757.70
2023-04-16T02:03:51.804Z,100756.41
2023-04-16T02:06:20.510Z,100762.32
2023-04-16T02:08:49.223Z,100759.06
2023-04-16T02:11:17.878Z,100760.22
2023-04-16T02:13:46.640Z,100762.54
2023-04-16T02:16:15.638Z,100758.46
2023-04-16T02:18:44.346Z,100764.19
2023-04-16T02:21:14.045Z,100766.44
2023-04-16T02:23:42.813Z,100765.08
2023-04-16T02:26:13.554Z,100767.57
2023-04-16T02:28:42.192Z,100768.14
2023-04-16T02:31:11.157Z,100767.33
2023-04-16T02:33:39.851Z,100768.63
2023-04-16T02:36:10.662Z,100767.70
2023-04-16T02:38:39.382Z,100769.85
2023-04-16T02:41:08.048Z,100773.39
2023-04-16T02:43:36.858Z,100774.73
2023-04-16T02:46:06.101Z,100770.38
2023-04-16T02:48:34.827Z,100771.74
2023-04-16T02:51:03.609Z,100771.27
2023-04-16T02:53:32.507Z,100771.73
2023-04-16T02:56:01.193Z,100772.14
2023-04-16T02:58:29.856Z,100775.75
2023-04-16T03:00:58.634Z,100776.25
2023-04-16T03:03:27.350Z,100781.20
2023-04-16T03:05:56.066Z,100781.73
2023-04-16T03:08:24.866Z,100784.61
2023-04-16T03:10:53.561Z,100785.50
2023-04-16T03:13:22.455Z,100789.98
2023-04-16T03:15:51.323Z,100793.15
2023-04-16T03:18:20.087Z,100787.01
2023-04-16T03:20:52.421Z,100789.38
2023-04-16T03:23:21.219Z,100790.27
2023-04-16T03:25:49.884Z,100793.06
2023-04-16T03:28:18.618Z,100793.19
2023-04-16T03:30:52.726Z,100792.23
2023-04-16T03:33:21.768Z,100796.44
2023-04-16T03:35:57.627Z,100799.36
2023-04-16T03:38:26.693Z,100798.83
2023-04-16T03:40:55.580Z,100802.67
2023-04-16T03:43:24.341Z,100804.11
2023-04-16T03:45:53.016Z,100804.27
2023-04-16T03:48:21.804Z,100807.42
2023-04-16T03:50:50.508Z,100814.98
2023-04-16T03:53:19.197Z,100818.09
2023-04-16T03:55:53.986Z,100818.85
2023-04-16T03:58:22.687Z,100821.04
2023-04-16T04:00:53.473Z,100824.14
2023-04-16T04:03:22.457Z,100831.86
2023-04-16T04:05:51.348Z,100832.29
2023-04-16T04:08:20.014Z,100839.43
2023-04-16T04:10:48.744Z,100844.90
2023-04-16T04:13:17.424Z,100848.01
2023-04-16T04:15:46.118Z,100846.89
2023-04-16T04:18:14.782Z,100850.84
2023-04-16T04:20:44.562Z,100852.33
2023-04-16T04:23:13.218Z,100854.87
2023-04-16T04:25:41.878Z,100854.52
2023-04-16T04:28:10.681Z,100854.92
2023-04-16T04:30:39.372Z,100861.25
2023-04-16T04:33:08.081Z,100864.14
2023-04-16T04:35:36.766Z,100867.39
2023-04-16T04:38:05.539Z,100866.11
2023-04-16T04:40:34.228Z,100867.52
2023-04-16T04:43:02.922Z,100871.88
2023-04-16T04:45:32.251Z,100872.56
2023-04-16T04:48:01.165Z,100874.11
2023-04-16T04:50:29.827Z,100873.86
2023-04-16T04:52:58.626Z,100875.73
2023-04-16T04:55:27.335Z,100878.75
2023-04-16T04:57:57.004Z,100879.70
2023-04-16T05:00:25.657Z,100882.75
2023-04-16T05:02:54.412Z,100885.61
2023-04-16T05:05:23.290Z,100889.17
2023-04-16T05:07:51.963Z,100889.40
2023-04-16T05:10:20.794Z,100885.94
2023-04-16T05:12:49.575Z,100888.77
2023-04-16T05:15:18.263Z,100891.83
2023-04-16T05:17:47.051Z,100890.48
2023-04-16T05:20:15.872Z,100891.02
2023-04-16T05:22:44.515Z,100892.36
2023-04-16T05:25:13.198Z,100896.48
2023-04-16T05:27:41.936Z,100895.36
2023-04-16T05:30:10.988Z,100897.02
2023-04-16T05:32:40.743Z,100898.18
2023-04-16T05:35:09.960Z,100902.45
2023-04-16T05:37:38.726Z,100904.39
2023-04-16T05:40:08.517Z,100905.97
2023-04-16T05:42:37.243Z,100906.02
2023-04-16T05:45:06.856Z,100912.45
2023-04-16T05:47:35.610Z,100913.88
2023-04-16T05:50:04.557Z,100915.17
2023-04-16T05:52:33.235Z,100920.17
2023-04-16T05:55:02.132Z,100923.20
2023-04-16T05:57:31.041Z,100924.88
2023-04-16T05:59:59.716Z,100925.48
2023-04-16T06:02:30.535Z,100926.14
2023-04-16T06:04:59.504Z,100925.73
2023-04-16T06:07:28.164Z,100932.34
2023-04-16T06:09:56.846Z,100930.61
2023-04-16T06:12:25.658Z,100935.33
2023-04-16T06:14:54.336Z,100942.27
2023-04-16T06:17:23.195Z,100940.89
2023-04-16T06:19:51.911Z,100940.65
2023-04-16T06:22:20.742Z,100947.66
2023-04-16T06:24:49.413Z,100950.61
2023-04-16T06:27:18.087Z,100953.17
2023-04-16T06:29:46.806Z,100957.15
2023-04-16T06:32:17.282Z,100957.58
2023-04-16T06:34:46.076Z,100958.83
2023-04-16T06:37:14.766Z,100959.46
2023-04-16T06:39:43.537Z,100962.81
2023-04-16T06:42:12.313Z,100963.85
2023-04-16T06:44:41.333Z,100964.58
2023-04-16T06:47:10.043Z,100963.62
2023-04-16T06:49:39.962Z,100964.52
2023-04-16T06:52:08.643Z,100964.48
2023-04-16T06:54:37.389Z,100964.27
2023-04-16T06:57:06.122Z,100968.50
2023-04-16T06:59:34.810Z,100971.08
2023-04-16T07:02:03.567Z,100974.98
2023-04-16T07:04:32.284Z,100977.37
2023-04-16T07:07:01.042Z,100982.33
2023-04-16T07:09:29.757Z,100983.55
2023-04-16T07:11:58.556Z,100987.38
2023-04-16T07:14:27.412Z,100990.58
2023-04-16T07:16:56.154Z,100996.11
2023-04-16T07:19:24.937Z,100993.31
2023-04-16T07:21:53.628Z,100996.09
2023-04-16T07:24:22.404Z,100992.92
2023-04-16T07:26:51.188Z,101000.55
2023-04-16T07:29:19.898Z,100995.49
2023-04-16T07:31:49.223Z,101003.85
2023-04-16T07:34:18.199Z,101004.22
2023-04-16T07:36:46.957Z,101006.00
2023-04-16T07:39:16.010Z,101006.20
2023-04-16T07:41:44.758Z,101009.66
2023-04-16T07:44:13.443Z,101008.64
2023-04-16T07:46:46.752Z,101009.52
2023-04-16T07:49:16.029Z,101010.60
2023-04-16T07:51:45.280Z,101011.27
2023-04-16T07:54:13.957Z,101011.02
2023-04-16T07:56:42.593Z,101015.69
2023-04-16T08:01:42.911Z,101015.84
2023-04-16T08:04:11.695Z,101017.32
2023-04-16T08:06:40.476Z,101018.27
2023-04-16T08:09:09.378Z,101023.16
2023-04-16T08:11:38.260Z,101026.91
2023-04-16T08:14:07.175Z,101028.55
2023-04-16T08:16:35.928Z,101030.34
2023-04-16T08:19:04.731Z,101036.30
2023-04-16T08:21:33.860Z,101030.34
2023-04-16T08:24:02.639Z,101034.07
2023-04-16T08:26:31.431Z,101037.38
2023-04-16T08:29:00.122Z,101036.09
2023-04-16T08:31:29.049Z,101033.73
2023-04-16T08:33:57.777Z,101035.72
2023-04-16T08:36:26.421Z,101041.55
2023-04-16T08:38:55.160Z,101038.35
2023-04-16T08:41:25.027Z,101043.56
2023-04-16T08:43:56.885Z,101047.80
2023-04-16T08:46:26.698Z,101051.40
2023-04-16T08:48:57.696Z,101053.90
2023-04-16T08:51:29.976Z,101048.33
2023-04-16T08:54:04.451Z,101056.14
2023-04-16T08:56:36.936Z,101056.23
2023-04-16T08:59:05.864Z,101059.54
2023-04-16T09:01:35.855Z,101058.19
2023-04-16T09:04:07.235Z,101060.58
2023-04-16T09:06:37.132Z,101059.99
2023-04-16T09:09:07.000Z,101065.10
2023-04-16T09:11:36.092Z,101062.77
2023-04-16T09:14:04.992Z,101064.66
2023-04-16T09:16:34.081Z,101067.50
2023-04-16T09:19:02.786Z,101072.17
2023-04-16T09:21:32.330Z,101073.52
2023-04-16T09:24:01.745Z,101074.02
2023-04-16T09:26:31.177Z,101077.84
2023-04-16T09:28:59.864Z,101079.28
2023-04-16T09:31:28.615Z,101079.84
2023-04-16T09:34:06.015Z,101081.26
2023-04-16T09:36:36.165Z,101082.73
2023-04-16T09:39:04.870Z,101080.63
2023-04-16T09:41:36.218Z,101080.43
2023-04-16T09:44:05.686Z,101082.86
2023-04-16T09:46:36.643Z,101081.84
2023-04-16T09:49:15.982Z,101085.79
2023-04-16T09:51:46.608Z,101086.50
2023-04-16T09:54:15.913Z,101089.16
2023-04-16T09:56:46.790Z,101088.66
2023-04-16T09:59:18.874Z,101090.89
2023-04-16T10:01:49.858Z,101091.71
2023-04-16T10:04:20.228Z,101091.39
2023-04-16T10:07:05.843Z,101090.35
2023-04-16T10:09:38.963Z,101095.11
2023-04-16T10:12:08.570Z,101093.75
2023-04-16T10:14:37.219Z,101101.56
2023-04-16T10:17:06.570Z,101098.06
2023-04-16T10:19:35.973Z,101103.58
2023-04-16T10:22:05.499Z,101104.42
2023-04-16T10:24:34.930Z,101105.39
2023-04-16T10:27:03.723Z,101109.48
2023-04-16T10:29:33.446Z,101114.87
2023-04-16T10:32:03.659Z,101113.67
2023-04-16T10:34:32.630Z,101118.83
2023-04-16T10:37:01.331Z,101120.97
2023-04-16T10:39:30.316Z,101118.73
2023-04-16T10:42:10.538Z,101118.02
2023-04-16T10:44:45.241Z,101116.22
2023-04-16T10:47:14.578Z,101118.79
2023-04-16T10:49:44.027Z,101121.71
2023-04-16T10:52:17.458Z,101124.96
2023-04-16T10:54:50.583Z,101126.30
2023-04-16T10:57:20.664Z,101126.45
2023-04-16T10:59:49.460Z,101127.23
2023-04-16T11:02:19.628Z,101124.09
2023-04-16T11:04:49.871Z,101128.73
2023-04-16T11:07:21.719Z,101129.95
2023-04-16T11:10:07.196Z,101134.86
2023-04-16T11:12:38.446Z,101134.88
2023-04-16T11:15:12.741Z,101129.03
2023-04-16T11:17:44.454Z,101129.38
2023-04-16T11:20:20.014Z,101131.55
2023-04-16T11:22:51.518Z,101127.48
2023-04-16T11:25:23.907Z,101127.33
2023-04-16T11:27:53.741Z,101130.38
2023-04-16T11:30:36.865Z,101130.67
2023-04-16T11:33:08.643Z,101127.43
2023-04-16T11:35:41.449Z,101129.69
2023-04-16T11:38:10.342Z,101133.06
2023-04-16T11:40:39.065Z,101133.33
2023-04-16T11:43:15.909Z,101130.66
2023-04-16T11:45:58.568Z,101130.80
2023-04-16T11:48:52.948Z,101129.83
2023-04-16T11:51:23.310Z,101130.06
2023-04-16T11:53:54.124Z,101131.88
2023-04-16T11:56:31.289Z,101132.18
2023-04-16T11:59:10.090Z,101134.95
2023-04-16T12:01:40.958Z,101134.21
2023-04-16T12:04:09.902Z,101136.77
2023-04-16T12:06:39.076Z,101137.89
2023-04-16T12:09:27.452Z,101141.58
2023-04-16T12:11:56.557Z,101143.40
2023-04-16T12:14:25.236Z,101145.02
2023-04-16T12:16:53.979Z,101143.04
2023-04-16T12:19:22.820Z,101143.67
2023-04-16T12:21:51.546Z,101145.30
2023-04-16T12:24:24.910Z,101147.14
2023-04-16T12:27:03.232Z,101146.52
2023-04-16T12:29:32.240Z,101150.16
2023-04-16T12:32:01.938Z,101150.63
2023-04-16T12:34:49.000Z,101147.05
2023-04-16T12:37:18.410Z,101145.52
2023-04-16T12:39:48.110Z,101148.12
2023-04-16T12:42:16.915Z,101148.32
2023-04-16T12:44:45.945Z,101151.70
2023-04-16T12:47:14.762Z,101147.80
2023-04-16T12:49:44.702Z,101149.39
2023-04-16T12:52:13.436Z,101150.63
2023-04-16T12:54:42.144Z,101151.04
2023-04-16T12:57:12.070Z,101154.53
2023-04-16T12:59:40.857Z,101154.77
2023-04-16T13:02:09.703Z,101155.33
2023-04-16T13:04:38.689Z,101158.00
2023-04-16T13:07:08.172Z,101158.47
2023-04-16T13:09:39.087Z,101159.48
2023-04-16T13:12:08.463Z,101155.78
2023-04-16T13:14:37.772Z,101162.56
2023-04-16T13:17:06.469Z,101159.82
2023-04-16T13:19:35.107Z,101162.41
2023-04-16T13:22:03.856Z,101164.40
2023-04-16T13:24:32.617Z,101163.38
2023-04-16T13:27:01.412Z,101167.75
2023-04-16T13:29:30.168Z,101168.70
2023-04-16T13:31:58.997Z,101168.59
2023-04-16T13:34:27.708Z,101169.08
2023-04-16T13:36:56.474Z,101172.07
2023-04-16T13:39:25.468Z,101174.73
2023-04-16T13:41:54.167Z,101172.39
2023-04-16T13:44:22.835Z,101170.71
2023-04-16T13:46:51.757Z,101170.95
2023-04-16T13:49:20.541Z,101172.61
2023-04-16T13:51:49.594Z,101174.67
2023-04-16T13:54:18.288Z,101175.78
2023-04-16T13:56:47.153Z,101176.90
2023-04-16T13:59:16.594Z,101180.96
2023-04-16T14:01:45.480Z,101182.15
2023-04-16T14:04:14.384Z,101181.84
2023-04-16T14:06:43.060Z,101181.92
2023-04-16T14:09:12.043Z,101180.21
2023-04-16T14:11:41.003Z,101180.94
2023-04-16T14:14:09.715Z,101180.73
2023-04-16T14:16:38.506Z,101179.27
2023-04-16T14:19:07.395Z,101179.48
2023-04-16T14:21:36.237Z,101181.16
2023-04-16T14:24:05.692Z,101179.11
2023-04-16T14:26:34.497Z,101177.87
2023-04-16T14:29:03.280Z,101178.71
2023-04-16T14:31:32.454Z,101177.45
2023-04-16T14:34:01.339Z,101173.96
2023-04-16T14:36:31.273Z,101176.68
2023-04-16T14:39:00.577Z,101172.95
2023-04-16T14:41:30.875Z,101168.45
2023-04-16T14:43:59.688Z,101176.11
2023-04-16T14:46:28.359Z,101181.59
2023-04-16T14:48:57.117Z,101183.36
2023-04-16T14:51:27.400Z,101185.65
2023-04-16T14:53:56.588Z,101183.95
2023-04-16T14:56:25.323Z,101183.69
2023-04-16T14:58:53.959Z,101184.70
2023-04-16T15:01:22.762Z,101187.20
2023-04-16T15:03:51.608Z,101187.45
2023-04-16T15:06:20.419Z,101189.08
2023-04-16T15:08:49.111Z,101190.48
2023-04-16T15:11:17.845Z,101191.25
2023-04-16T15:13:46.579Z,101190.48
2023-04-16T15:16:15.344Z,101195.14
2023-04-16T15:18:44.090Z,101195.14
2023-04-16T15:21:12.901Z,101198.80
2023-04-16T15:23:41.790Z,101201.58
2023-04-16T15:26:10.441Z,101201.99
2023-04-16T15:28:39.164Z,101202.86
2023-04-16T15:31:07.941Z,101209.31
2023-04-16T15:33:36.927Z,101206.95
2023-04-16T15:36:06.328Z,101209.23
2023-04-16T15:38:35.222Z,101210.56
2023-04-16T15:41:03.860Z,101212.52
2023-04-16T15:43:32.529Z,101212.60
2023-04-16T15:46:01.241Z,101213.50
2023-04-16T15:48:29.938Z,101214.80
2023-04-16T15:50:58.657Z,101217.38
2023-04-16T15:53:27.982Z,101211.46
2023-04-16T15:55:56.639Z,101214.60
2023-04-16T15:58:25.744Z,101215.77
2023-04-16T16:00:54.440Z,101216.36
2023-04-16T16:03:23.333Z,101221.09
2023-04-16T16:05:52.333Z,101220.67
2023-04-16T16:08:21.008Z,101221.63
2023-04-16T16:10:49.738Z,101220.62
2023-04-16T16:13:18.466Z,101225.38
2023-04-16T16:15:47.148Z,101221.07
2023-04-16T16:18:16.031Z,101223.54
2023-04-16T16:20:44.749Z,101227.34
2023-04-16T16:23:13.411Z,101228.30
2023-04-16T16:25:42.652Z,101233.87
2023-04-16T16:28:11.371Z,101229.65
2023-04-16T16:30:40.748Z,101231.67
2023-04-16T16:33:09.532Z,101234.89
2023-04-16T16:35:38.252Z,101230.71
2023-04-16T16:38:06.925Z,101236.82
2023-04-16T16:40:36.134Z,101239.18
2023-04-16T16:43:05.038Z,101237.31
2023-04-16T16:45:33.731Z,101238.06
2023-04-16T16:48:03.883Z,101240.71
2023-04-16T16:50:32.765Z,101242.69
2023-04-16T16:53:01.579Z,101249.23
2023-04-16T16:55:31.319Z,101249.96
2023-04-16T16:58:00.078Z,101252.80
2023-04-16T17:00:28.974Z,101256.80
2023-04-16T17:02:58.136Z,101262.23
2023-04-16T17:05:27.078Z,101261.13
2023-04-16T17:07:55.927Z,101266.30
2023-04-16T17:10:25.362Z,101269.02
2023-04-16T17:12:54.192Z,101271.86
2023-04-16T17:15:23.103Z,101274.03
2023-04-16T17:17:51.815Z,101271.73
2023-04-16T17:20:20.777Z,101271.63
2023-04-16T17:22:49.483Z,101273.09
2023-04-16T17:25:18.278Z,101277.54
2023-04-16T17:27:46.959Z,101277.20
2023-04-16T17:30:16.446Z,101283.84
2023-04-16T17:32:45.224Z,101286.50
2023-04-16T17:35:14.059Z,101287.06
2023-04-16T17:37:42.742Z,101290.71
2023-04-16T17:40:13.174Z,101293.96
2023-04-16T17:42:41.854Z,101294.90
2023-04-16T17:45:11.527Z,101298.02
2023-04-16T17:47:40.659Z,101300.15
2023-04-16T17:50:10.234Z,101301.41
2023-04-16T17:52:39.014Z,101302.62
2023-04-16T17:55:07.919Z,101302.36
2023-04-16T17:57:37.379Z,101310.67
2023-04-16T18:00:12.461Z,101312.60
2023-04-16T18:02:42.124Z,101313.32
2023-04-16T18:05:11.344Z,101318.77
2023-04-16T18:07:40.455Z,101321.77
2023-04-16T18:10:09.794Z,101325.23
2023-04-16T18:12:38.543Z,101329.85
2023-04-16T18:15:07.819Z,101330.96
2023-04-16T18:17:36.566Z,101336.69
2023-04-16T18:20:08.031Z,101338.77
2023-04-16T18:22:36.701Z,101342.10
2023-04-16T18:25:06.719Z,101341.86
2023-04-16T18:27:35.420Z,101348.69
2023-04-16T18:30:05.232Z,101349.77
2023-04-16T18:32:35.120Z,101350.48
2023-04-16T18:35:04.365Z,101355.94
2023-04-16T18:37:33.384Z,101357.42
2023-04-16T18:40:02.091Z,101360.75
2023-04-16T18:42:30.787Z,101361.45
2023-04-16T18:44:59.581Z,101364.26
2023-04-16T18:47:28.363Z,101368.52
2023-04-16T18:49:57.096Z,101367.94
2023-04-16T18:52:26.071Z,101369.02
2023-04-16T18:54:54.718Z,101372.95
2023-04-16T18:57:23.407Z,101370.17
2023-04-16T18:59:52.539Z,101375.48
2023-04-16T19:02:21.418Z,101373.33
2023-04-16T19:04:50.314Z,101373.92
2023-04-16T19:07:18.978Z,101375.70
2023-04-16T19:09:47.667Z,101374.54
2023-04-16T19:12:16.365Z,101378.85
2023-04-16T19:14:45.288Z,101380.38
2023-04-16T19:17:14.028Z,101382.39
2023-04-16T19:19:42.705Z,101384.73
2023-04-16T19:22:11.440Z,101380.89
2023-04-16T19:24:40.102Z,101387.59
2023-04-16T19:27:08.777Z,101388.34
2023-04-16T19:29:37.560Z,101385.52
2023-04-16T19:32:06.318Z,101390.20
2023-04-16T19:34:35.233Z,101386.12
2023-04-16T19:37:03.991Z,101386.74
2023-04-16T19:39:33.409Z,101384.96
2023-04-16T19:42:02.188Z,101386.98
2023-04-16T19:44:32.270Z,101388.38
2023-04-16T19:47:01.158Z,101389.58
2023-04-16T19:49:29.826Z,101390.91
2023-04-16T19:51:58.499Z,101388.83
2023-04-16T19:54:27.360Z,101389.08
2023-04-16T19:56:57.131Z,101385.86
2023-04-16T19:59:28.180Z,101390.02
2023-04-16T20:01:56.876Z,101396.59
2023-04-16T20:04:25.794Z,101400.52
2023-04-16T20:06:54.534Z,101401.11
2023-04-16T20:09:23.488Z,101403.02
2023-04-16T20:11:52.282Z,101395.96
2023-04-16T20:14:21.070Z,101400.39
2023-04-16T20:16:49.901Z,101398.23
2023-04-16T20:19:19.558Z,101404.33
2023-04-16T20:21:48.234Z,101402.06
2023-04-16T20:24:16.862Z,101404.23
2023-04-16T20:26:45.522Z,101404.71
2023-04-16T20:29:14.814Z,101404.02
2023-04-16T20:31:45.957Z,101406.70
2023-04-16T20:34:14.709Z,101406.33
2023-04-16T20:36:43.363Z,101405.48
2023-04-16T20:39:12.619Z,101406.04
2023-04-16T20:41:44.310Z,101408.13
2023-04-16T20:44:18.231Z,101402.36
2023-04-16T20:46:49.796Z,101406.05
2023-04-16T20:49:18.676Z,101409.77
2023-04-16T20:51:47.354Z,101413.77
2023-04-16T20:54:16.458Z,101412.04
2023-04-16T20:56:45.960Z,101413.01
2023-04-16T20:59:14.625Z,101415.84
2023-04-16T21:01:43.322Z,101417.86
2023-04-16T21:04:12.103Z,101418.86
2023-04-16T21:06:42.997Z,101420.23
2023-04-16T21:09:12.977Z,101419.42
2023-04-16T21:11:41.858Z,101420.36
2023-04-16T21:14:10.610Z,101422.23
2023-04-16T21:16:39.296Z,101422.61
2023-04-16T21:19:08.835Z,101425.16
2023-04-16T21:21:38.954Z,101423.23
2023-04-16T21:24:08.102Z,101423.17
2023-04-16T21:26:37.002Z,101419.19
2023-04-16T21:29:05.646Z,101418.60
2023-04-16T21:31:34.377Z,101415.75
2023-04-16T21:34:03.101Z,101419.01
2023-04-16T21:36:33.695Z,101416.98
2023-04-16T21:39:02.486Z,101413.63
2023-04-16T21:41:31.152Z,101415.06
2023-04-16T21:43:59.871Z,101415.37
2023-04-16T21:46:28.614Z,101418.73
2023-04-16T21:48:57.319Z,101421.06
2023-04-16T21:51:29.145Z,101421.66
2023-04-16T21:53:58.494Z,101425.04
2023-04-16T21:56:27.187Z,101425.20
2023-04-16T21:58:55.838Z,101426.06
2023-04-16T22:01:24.545Z,101429.58
2023-04-16T22:03:53.385Z,101429.79
2023-04-16T22:06:22.272Z,101431.48
2023-04-16T22:08:50.981Z,101432.85
2023-04-16T22:11:19.716Z,101430.35
2023-04-16T22:13:49.534Z,101435.73
2023-04-16T22:16:18.308Z,101438.13
2023-04-16T22:18:47.455Z,101438.73
2023-04-16T22:21:16.274Z,101436.35
2023-04-16T22:23:45.757Z,101438.36
2023-04-16T22:26:14.880Z,101439.28
2023-04-16T22:28:43.508Z,101439.34
2023-04-16T22:31:12.270Z,101442.66
2023-04-16T22:33:40.982Z,101442.98
2023-04-16T22:36:09.637Z,101447.60
2023-04-16T22:38:38.813Z,101443.64
2023-04-16T22:41:07.482Z,101442.52
2023-04-16T22:43:37.157Z,101438.23
2023-04-16T22:46:06.996Z,101436.77
2023-04-16T22:48:38.236Z,101438.34
2023-04-16T22:51:09.712Z,101440.75
2023-04-16T22:53:38.555Z,101440.86
2023-04-16T22:56:07.423Z,101441.48
2023-04-16T22:58:36.081Z,101438.77
2023-04-16T23:01:04.880Z,101436.67
2023-04-16T23:03:33.783Z,101440.98
2023-04-16T23:06:03.935Z,101441.86
2023-04-16T23:08:32.602Z,101442.86
2023-04-16T23:11:01.245Z,101441.11
2023-04-16T23:13:29.911Z,101437.40
2023-04-16T23:15:58.920Z,101437.05
2023-04-16T23:18:27.556Z,101436.23
2023-04-16T23:20:56.509Z,101436.20
2023-04-16T23:23:25.200Z,101435.50
2023-04-16T23:25:54.253Z,101438.85
2023-04-16T23:28:22.948Z,101435.26
2023-04-16T23:30:52.824Z,101438.05
2023-04-16T23:33:22.106Z,101436.09
2023-04-16T23:35:50.868Z,101431.59
2023-04-16T23:38:19.590Z,101430.20
2023-04-16T23:40:48.285Z,101428.23
2023-04-16T23:43:16.996Z,101432.70
2023-04-16T23:45:45.885Z,101427.98
2023-04-16T23:48:14.615Z,101427.60
2023-04-16T23:50:43.283Z,101428.58
2023-04-16T23:53:12.062Z,101426.98
2023-04-16T23:55:40.751Z,101428.77
2023-04-16T23:58:09.488Z,101426.20
